Masuei Maru No32 — JI3612 — position and weather

sailwx.info

Track history (hours):
 
Tides and Currents Weather Stations Pressure Air Temp Water Temp Dewpoint Dewpoint Depression Visibility Wind Speed Wind Dir Waves Ship Positions

Masuei Maru No32

Last reported at 2018-Jun-17 05:49 UTC. Time now 2018-Jun-24 05:29 UTC.
Position N 34°38' E 135°28'.

Length 32 m.

Type: Tug. MMSI: 431301507.

Date/timePositionNaut miles runAvg speedWind from/ knotsBaromVisibWave heightAir tempDewpointWater temp
2018-Jun-17 05:49N 34°38' E 135°28'4 8.1
2018-Jun-17 05:21N 34°38' E 135°23'410.8
2018-Jun-17 05:00N 34°35' E 135°20'1911.3
2018-Jun-17 03:19N 34°21' E 135°05'310.3
2018-Jun-17 03:00N 34°18' E 135°04'4 8.1
2018-Jun-17 02:30N 34°14' E 135°06'2 3.7
2018-Jun-17 02:00N 34°13' E 135°08'5 4.2
2018-Jun-17 00:53N 34°08' E 135°06'2 4.3
2018-Jun-17 00:27N 34°10' E 135°07'3 7.9
2018-Jun-17 00:00N 34°13' E 135°09'0 0.1
2018-Jun-16 22:54N 34°13' E 135°09'0 0.0
2018-Jun-16 22:30N 34°13' E 135°09'0 0.0
2018-Jun-16 22:00N 34°13' E 135°09'0 0.0
2018-Jun-16 21:30N 34°13' E 135°09'0 0.0
2018-Jun-16 21:00N 34°13' E 135°09'0 0.0
2018-Jun-16 17:30N 34°13' E 135°09'0 0.0
2018-Jun-16 17:00N 34°13' E 135°09'0 0.0
2018-Jun-16 16:30N 34°13' E 135°09'0 0.0
2018-Jun-16 16:00N 34°13' E 135°09'0 0.0
2018-Jun-16 13:08N 34°13' E 135°09'2 7.1
2018-Jun-16 12:53N 34°13' E 135°07'1 0.9
2018-Jun-16 11:51N 34°14' E 135°07'1 1.9
2018-Jun-16 11:23N 34°14' E 135°06'1 3.5
2018-Jun-16 10:58N 34°13' E 135°06'2 3.6
2018-Jun-16 10:27N 34°14' E 135°08'1 1.2
2018-Jun-16 10:00N 34°14' E 135°07'2 3.5
2018-Jun-16 09:30N 34°13' E 135°09'0 0.3
2018-Jun-16 09:00N 34°13' E 135°09'0 0.0
2018-Jun-16 08:30N 34°13' E 135°09'2 1.1
2018-Jun-16 06:57N 34°12' E 135°07'4 2.5
2018-Jun-16 05:14N 34°08' E 135°07'1 0.3
2018-Jun-16 00:59N 34°07' E 135°08'1 1.3
2018-Jun-16 00:29N 34°07' E 135°07'1 2.3
2018-Jun-15 23:59N 34°09' E 135°07'4 8.5
2018-Jun-15 23:31N 34°13' E 135°07'2 0.5
2018-Jun-15 20:10N 34°13' E 135°09'0 0.0
2018-Jun-15 19:58N 34°13' E 135°09'0 0.0
2018-Jun-15 19:22N 34°13' E 135°09'0 0.0
2018-Jun-15 18:58N 34°13' E 135°09'0 0.0
2018-Jun-15 18:28N 34°13' E 135°09'0 0.0
2018-Jun-15 17:49N 34°13' E 135°09'0 0.0
2018-Jun-15 17:28N 34°13' E 135°09'0 0.0
2018-Jun-15 16:58N 34°13' E 135°09'0 0.0
2018-Jun-15 15:49N 34°13' E 135°09'0 0.0
2018-Jun-15 13:55N 34°13' E 135°09'0 0.0
2018-Jun-15 13:28N 34°13' E 135°09'0 0.0
2018-Jun-15 12:52N 34°13' E 135°09'0 0.0
2018-Jun-15 12:28N 34°13' E 135°09'0 0.0
2018-Jun-15 11:58N 34°13' E 135°09'0 0.0
2018-Jun-15 11:19N 34°13' E 135°09'0 0.0
2018-Jun-15 10:49N 34°13' E 135°09'0 0.0
2018-Jun-15 10:28N 34°13' E 135°09'0 0.0
2018-Jun-15 09:58N 34°13' E 135°09'0 0.0
2018-Jun-15 09:28N 34°13' E 135°09'0 0.0
2018-Jun-15 08:46N 34°13' E 135°09'0 0.0
2018-Jun-15 08:28N 34°13' E 135°09'0 0.0
2018-Jun-15 07:58N 34°13' E 135°09'0 0.0
2018-Jun-15 07:19N 34°13' E 135°09'0 0.0
2018-Jun-15 06:25N 34°13' E 135°09'0 0.0
2018-Jun-14 19:01N 34°13' E 135°09'0 0.0
2018-Jun-14 18:58N 34°13' E 135°09'0 0.0
2018-Jun-14 18:28N 34°13' E 135°09'0 0.0
2018-Jun-14 17:58N 34°13' E 135°09'0 0.0
2018-Jun-14 17:25N 34°13' E 135°09'0 0.0
2018-Jun-14 16:49N 34°13' E 135°09'0 0.0
2018-Jun-14 16:25N 34°13' E 135°09'0 0.0
2018-Jun-14 15:58N 34°13' E 135°09'0 0.0
2018-Jun-14 13:16N 34°13' E 135°09'0 0.0
2018-Jun-14 12:55N 34°13' E 135°09'0 0.0
2018-Jun-14 12:28N 34°13' E 135°09'0 0.0
2018-Jun-14 11:58N 34°13' E 135°09'0 0.0
2018-Jun-14 11:28N 34°13' E 135°09'0 0.0
2018-Jun-14 10:58N 34°13' E 135°09'0 0.0
2018-Jun-14 10:19N 34°13' E 135°09'0 0.0
2018-Jun-14 09:55N 34°13' E 135°09'0 0.0
2018-Jun-14 09:25N 34°13' E 135°09'0 0.0
2018-Jun-14 08:55N 34°13' E 135°09'0 0.0
2018-Jun-14 08:25N 34°13' E 135°09'0 0.0
2018-Jun-14 07:58N 34°13' E 135°09'0 0.0
2018-Jun-14 07:28N 34°13' E 135°09'0 0.0
2018-Jun-14 06:58N 34°13' E 135°09'0 0.0
2018-Jun-14 06:28N 34°13' E 135°09'0 0.0
2018-Jun-14 05:53N 34°13' E 135°09'2 5.0
2018-Jun-14 05:29N 34°13' E 135°06'6 9.9
2018-Jun-14 04:52N 34°10' E 134°60'3 9.1
2018-Jun-14 04:30N 34°09' E 134°56'6 1.4
2018-Jun-14 00:30N 34°07' E 134°50'611.8
2018-Jun-14 00:00N 34°09' E 134°57'611.3
2018-Jun-13 23:30N 34°12' E 135°03'510.1
2018-Jun-13 23:00N 34°13' E 135°09'0 0.1
2018-Jun-13 21:31N 34°13' E 135°09'0 0.0
2018-Jun-13 20:49N 34°13' E 135°09'0 0.0
2018-Jun-13 20:25N 34°13' E 135°09'0 0.0
2018-Jun-13 18:49N 34°13' E 135°09'0 0.0
2018-Jun-13 18:25N 34°13' E 135°09'0 0.0
2018-Jun-13 17:55N 34°13' E 135°09'0 0.0
2018-Jun-13 16:49N 34°13' E 135°09'0 0.0
2018-Jun-13 16:25N 34°13' E 135°09'0 0.0
2018-Jun-13 12:07N 34°13' E 135°09'0 0.0
2018-Jun-13 11:49N 34°13' E 135°09'0 0.0
2018-Jun-13 09:43N 34°13' E 135°09'0 0.0
2018-Jun-13 09:25N 34°13' E 135°09'0 0.0
2018-Jun-13 08:58N 34°13' E 135°09'0 0.0
2018-Jun-13 08:25N 34°13' E 135°09'0 0.0
2018-Jun-13 07:55N 34°13' E 135°09'0 0.0
2018-Jun-13 07:25N 34°13' E 135°09'0 0.0
2018-Jun-13 06:49N 34°13' E 135°09'0 0.0
2018-Jun-13 06:01N 34°13' E 135°09'0 0.1
2018-Jun-13 05:55N 34°13' E 135°09'0 0.0
2018-Jun-13 04:24N 34°13' E 135°09'5 7.0
2018-Jun-13 03:39N 34°08' E 135°07'7 5.8
2018-Jun-13 02:30N 34°02' E 135°04'6 1.8
2018-Jun-12 23:08N 34°08' E 135°04'211.6
2018-Jun-12 23:00N 34°10' E 135°05'5 9.7
2018-Jun-12 22:29N 34°14' E 135°07'1 1.5
2018-Jun-12 21:51N 34°14' E 135°08'0 1.2
2018-Jun-12 21:30N 34°14' E 135°07'2 3.9
2018-Jun-12 20:58N 34°14' E 135°05'1 1.5
2018-Jun-12 20:30N 34°14' E 135°05'3 4.8
2018-Jun-12 19:53N 34°13' E 135°09'0 0.0
2018-Jun-12 19:26N 34°13' E 135°09'0 0.0
2018-Jun-12 18:59N 34°13' E 135°09'0 0.0
2018-Jun-12 18:29N 34°13' E 135°09'0 0.0
2018-Jun-12 17:59N 34°13' E 135°09'0 0.0
2018-Jun-12 17:11N 34°13' E 135°09'0 0.0
2018-Jun-12 16:53N 34°13' E 135°09'0 0.0
2018-Jun-12 16:29N 34°13' E 135°09'0 0.0
2018-Jun-12 15:59N 34°13' E 135°09'0 0.0
2018-Jun-12 15:29N 34°13' E 135°09'0 0.0
2018-Jun-12 14:47N 34°13' E 135°09'0 0.0
2018-Jun-12 14:23N 34°13' E 135°09'0 0.0
2018-Jun-12 11:47N 34°13' E 135°09'0 0.0
2018-Jun-12 11:23N 34°13' E 135°09'0 0.0
2018-Jun-12 10:59N 34°13' E 135°09'0 0.0
2018-Jun-12 09:47N 34°13' E 135°09'0 0.0
2018-Jun-12 09:29N 34°13' E 135°09'0 0.0
2018-Jun-12 08:11N 34°13' E 135°09'0 0.0
2018-Jun-12 07:59N 34°13' E 135°09'0 0.0
2018-Jun-12 06:41N 34°13' E 135°09'0 0.0
2018-Jun-12 06:29N 34°13' E 135°09'0 0.0
2018-Jun-12 05:59N 34°13' E 135°09'0 0.0
2018-Jun-12 05:29N 34°13' E 135°09'0 0.0
2018-Jun-12 04:59N 34°13' E 135°09'0 0.0
2018-Jun-12 04:02N 34°13' E 135°09'0 0.0
2018-Jun-12 03:59N 34°13' E 135°09'0 0.0
2018-Jun-12 03:23N 34°13' E 135°09'0 0.0
2018-Jun-12 02:59N 34°13' E 135°09'0 0.0
2018-Jun-12 02:29N 34°13' E 135°09'0 0.0
2018-Jun-12 01:59N 34°13' E 135°09'0 0.0
2018-Jun-12 01:29N 34°13' E 135°09'0 0.0
2018-Jun-12 00:56N 34°13' E 135°09'0 0.0
2018-Jun-12 00:26N 34°13' E 135°09'0 0.0
2018-Jun-11 23:59N 34°13' E 135°09'2 5.0
2018-Jun-11 23:30N 34°14' E 135°06'1 2.7
2018-Jun-11 23:00N 34°14' E 135°08'1 3.0
2018-Jun-11 22:30N 34°13' E 135°09'0 0.4
2018-Jun-11 21:58N 34°13' E 135°09'0 0.0
2018-Jun-11 21:28N 34°13' E 135°09'0 0.0
2018-Jun-11 20:58N 34°13' E 135°09'0 0.0
2018-Jun-11 20:28N 34°13' E 135°09'0 0.0
2018-Jun-11 19:58N 34°13' E 135°09'0 0.0
2018-Jun-11 19:28N 34°13' E 135°09'0 0.0
2018-Jun-11 18:58N 34°13' E 135°09'0 0.0
2018-Jun-11 18:28N 34°13' E 135°09'0 0.0
2018-Jun-11 17:58N 34°13' E 135°09'0 0.0
2018-Jun-11 17:28N 34°13' E 135°09'0 0.0
2018-Jun-11 16:58N 34°13' E 135°09'0 0.0
2018-Jun-11 16:28N 34°13' E 135°09'0 0.0
2018-Jun-11 15:58N 34°13' E 135°09'0 0.0
2018-Jun-11 15:28N 34°13' E 135°09'0 0.0
2018-Jun-11 14:58N 34°13' E 135°09'0 0.0
2018-Jun-11 14:28N 34°13' E 135°09'0 0.0
2018-Jun-11 13:58N 34°13' E 135°09'0 0.0
2018-Jun-11 13:28N 34°13' E 135°09'0 0.0
2018-Jun-11 12:58N 34°13' E 135°09'0 0.0
2018-Jun-11 12:28N 34°13' E 135°09'0 0.0
2018-Jun-11 11:58N 34°13' E 135°09'0 0.0
2018-Jun-11 11:28N 34°13' E 135°09'0 0.0
2018-Jun-11 10:58N 34°13' E 135°09'0 0.0
2018-Jun-11 10:28N 34°13' E 135°09'0 0.0
2018-Jun-11 09:58N 34°13' E 135°09'0 0.0
2018-Jun-11 09:28N 34°13' E 135°09'0 0.0
2018-Jun-11 08:58N 34°13' E 135°09'0 0.0
2018-Jun-11 08:28N 34°13' E 135°09'0 0.0
2018-Jun-11 07:58N 34°13' E 135°09'0 0.0
2018-Jun-11 07:28N 34°13' E 135°09'0 0.0
2018-Jun-11 06:58N 34°13' E 135°09'0 0.0
2018-Jun-11 06:28N 34°13' E 135°09'0 0.0
2018-Jun-11 05:58N 34°13' E 135°09'0 0.0
2018-Jun-11 05:19N 34°13' E 135°09'0 0.0
2018-Jun-11 04:52N 34°13' E 135°09'0 0.0
2018-Jun-11 04:25N 34°13' E 135°09'0 0.0
2018-Jun-11 03:55N 34°13' E 135°09'0 0.0
2018-Jun-11 03:13N 34°13' E 135°09'0 0.0
2018-Jun-11 02:58N 34°13' E 135°09'0 0.0
2018-Jun-11 02:28N 34°13' E 135°09'0 0.0
2018-Jun-11 01:58N 34°13' E 135°09'0 0.0
2018-Jun-11 01:28N 34°13' E 135°09'0 0.0
2018-Jun-11 00:58N 34°13' E 135°09'0 0.0
2018-Jun-11 00:28N 34°13' E 135°09'0 0.0
2018-Jun-10 23:58N 34°13' E 135°09'0 0.0
2018-Jun-10 23:28N 34°13' E 135°09'0 0.0
2018-Jun-10 22:58N 34°13' E 135°09'0 0.0
2018-Jun-10 22:28N 34°13' E 135°09'0 0.0
2018-Jun-10 21:58N 34°13' E 135°09'0 0.0
2018-Jun-10 21:28N 34°13' E 135°09'0 0.0
2018-Jun-10 20:58N 34°13' E 135°09'0 0.0
2018-Jun-10 20:28N 34°13' E 135°09'0 0.0
2018-Jun-10 19:58N 34°13' E 135°09'0 0.0
2018-Jun-10 19:28N 34°13' E 135°09'0 0.0
2018-Jun-10 18:58N 34°13' E 135°09'0 0.0
2018-Jun-10 18:28N 34°13' E 135°09'0 0.0
2018-Jun-10 17:58N 34°13' E 135°09'0 0.0
2018-Jun-10 17:28N 34°13' E 135°09'0 0.0
2018-Jun-10 16:58N 34°13' E 135°09'0 0.0
2018-Jun-10 15:40N 34°13' E 135°09'0 0.0
2018-Jun-10 15:28N 34°13' E 135°09'0 0.0
2018-Jun-10 14:58N 34°13' E 135°09'0 0.0
2018-Jun-10 13:55N 34°13' E 135°09'0 0.0
2018-Jun-10 13:28N 34°13' E 135°09'0 0.0
2018-Jun-10 12:58N 34°13' E 135°09'0 0.0
2018-Jun-10 12:28N 34°13' E 135°09'0 0.0
2018-Jun-10 11:58N 34°13' E 135°09'0 0.0
2018-Jun-10 11:25N 34°13' E 135°09'0 0.0
2018-Jun-10 10:58N 34°13' E 135°09'0 0.0
2018-Jun-10 10:28N 34°13' E 135°09'0 0.0
2018-Jun-10 09:58N 34°13' E 135°09'0 0.8
2018-Jun-10 09:26N 34°13' E 135°09'0 0.9
2018-Jun-10 08:58N 34°13' E 135°09'0 0.0
2018-Jun-10 08:28N 34°13' E 135°09'0 0.0
2018-Jun-10 07:58N 34°13' E 135°09'0 0.0
2018-Jun-10 07:28N 34°13' E 135°09'0 0.0
2018-Jun-10 06:58N 34°13' E 135°09'0 0.0
2018-Jun-10 06:28N 34°13' E 135°09'0 0.0
2018-Jun-10 05:46N 34°13' E 135°09'0 0.0
2018-Jun-10 05:28N 34°13' E 135°09'0 0.0
2018-Jun-10 04:58N 34°13' E 135°09'0 0.0
2018-Jun-10 04:28N 34°13' E 135°09'0 0.0
2018-Jun-10 03:58N 34°13' E 135°09'0 0.0
2018-Jun-10 03:28N 34°13' E 135°09'0 0.0
2018-Jun-10 02:58N 34°13' E 135°09'0 0.0
2018-Jun-10 02:28N 34°13' E 135°09'0 0.0
2018-Jun-10 01:31N 34°13' E 135°09'0 0.1
2018-Jun-10 01:28N 34°13' E 135°09'0 0.0
2018-Jun-10 00:58N 34°13' E 135°09'0 0.0
2018-Jun-10 00:28N 34°13' E 135°09'0 0.0
2018-Jun-09 23:58N 34°13' E 135°09'0 0.0
2018-Jun-09 23:28N 34°13' E 135°09'0 0.0
2018-Jun-09 22:58N 34°13' E 135°09'0 0.0
2018-Jun-09 22:28N 34°13' E 135°09'0 0.0
2018-Jun-09 21:58N 34°13' E 135°09'0 0.0
2018-Jun-09 21:28N 34°13' E 135°09'0 0.0
2018-Jun-09 20:58N 34°13' E 135°09'0 0.0
2018-Jun-09 20:28N 34°13' E 135°09'0 0.0
2018-Jun-09 19:58N 34°13' E 135°09'0 0.0
2018-Jun-09 19:28N 34°13' E 135°09'0 0.0
2018-Jun-09 18:58N 34°13' E 135°09'0 0.0
2018-Jun-09 18:28N 34°13' E 135°09'0 0.0
2018-Jun-09 17:58N 34°13' E 135°09'0 0.0
2018-Jun-09 17:28N 34°13' E 135°09'0 0.0
2018-Jun-09 16:58N 34°13' E 135°09'0 0.0
2018-Jun-09 15:46N 34°13' E 135°09'0 0.0
2018-Jun-09 14:58N 34°13' E 135°09'0 0.0
2018-Jun-09 14:28N 34°13' E 135°09'0 0.0
2018-Jun-09 13:58N 34°13' E 135°09'0 0.0
2018-Jun-09 13:28N 34°13' E 135°09'0 0.0
2018-Jun-09 12:55N 34°13' E 135°09'0 0.0
2018-Jun-09 12:28N 34°13' E 135°09'0 0.0
2018-Jun-09 11:40N 34°13' E 135°09'0 0.0
2018-Jun-09 11:28N 34°13' E 135°09'0 0.0
2018-Jun-09 10:58N 34°13' E 135°09'0 0.0
2018-Jun-09 10:28N 34°13' E 135°09'0 0.0
2018-Jun-09 09:58N 34°13' E 135°09'0 0.0
2018-Jun-09 09:28N 34°13' E 135°09'0 0.0
2018-Jun-09 08:58N 34°13' E 135°09'0 0.0
2018-Jun-09 08:28N 34°13' E 135°09'0 0.0
2018-Jun-09 07:58N 34°13' E 135°09'0 0.0
2018-Jun-09 07:28N 34°13' E 135°09'0 0.0
2018-Jun-09 06:58N 34°13' E 135°09'0 0.0
2018-Jun-09 06:22N 34°13' E 135°09'0 0.0
2018-Jun-09 05:58N 34°13' E 135°09'0 0.0
2018-Jun-09 05:28N 34°13' E 135°09'0 0.0
2018-Jun-09 04:46N 34°13' E 135°09'0 0.0
2018-Jun-09 04:28N 34°13' E 135°09'0 0.0
2018-Jun-09 03:58N 34°13' E 135°09'0 0.1
2018-Jun-09 03:05N 34°13' E 135°09'2 7.0
2018-Jun-09 02:51N 34°13' E 135°07'410.6
2018-Jun-09 02:30N 34°09' E 135°06'2 3.9
2018-Jun-09 01:53N 34°07' E 135°07'1 3.0
2018-Jun-09 01:27N 34°08' E 135°07'511.4
2018-Jun-09 01:00N 34°13' E 135°07'1 2.8
2018-Jun-09 00:29N 34°13' E 135°09'0 0.0
2018-Jun-08 23:59N 34°13' E 135°09'0 0.0
2018-Jun-08 23:29N 34°13' E 135°09'0 0.0
2018-Jun-08 22:59N 34°13' E 135°09'0 0.0
2018-Jun-08 22:29N 34°13' E 135°09'0 0.0
2018-Jun-08 21:59N 34°13' E 135°09'0 0.0
2018-Jun-08 21:29N 34°13' E 135°09'0 0.0
2018-Jun-08 20:53N 34°13' E 135°09'0 0.0
2018-Jun-08 20:29N 34°13' E 135°09'0 0.0
2018-Jun-08 19:59N 34°13' E 135°09'0 0.0
2018-Jun-08 19:29N 34°13' E 135°09'0 0.0
2018-Jun-08 18:59N 34°13' E 135°09'0 0.0
2018-Jun-08 18:17N 34°13' E 135°09'0 0.0
2018-Jun-08 17:59N 34°13' E 135°09'0 0.0
2018-Jun-08 15:11N 34°13' E 135°09'0 0.0
2018-Jun-08 14:59N 34°13' E 135°09'0 0.0
2018-Jun-08 14:26N 34°13' E 135°09'0 0.0
2018-Jun-08 13:59N 34°13' E 135°09'0 0.0
2018-Jun-08 13:26N 34°13' E 135°09'0 0.0
2018-Jun-08 12:59N 34°13' E 135°09'0 0.0
2018-Jun-08 12:29N 34°13' E 135°09'0 0.0
2018-Jun-08 11:56N 34°13' E 135°09'0 0.0
2018-Jun-08 11:29N 34°13' E 135°09'0 0.0
2018-Jun-08 10:59N 34°13' E 135°09'0 0.0
2018-Jun-08 10:29N 34°13' E 135°09'0 0.0
2018-Jun-08 09:59N 34°13' E 135°09'0 0.0
2018-Jun-08 09:29N 34°13' E 135°09'0 0.0
2018-Jun-08 08:59N 34°13' E 135°09'0 0.0
2018-Jun-08 08:29N 34°13' E 135°09'0 0.0
2018-Jun-08 07:59N 34°13' E 135°09'0 0.0
2018-Jun-08 07:29N 34°13' E 135°09'0 0.0
2018-Jun-08 06:59N 34°13' E 135°09'0 0.0
2018-Jun-08 06:29N 34°13' E 135°09'2 2.6
2018-Jun-08 05:48N 34°13' E 135°07'1 0.8
2018-Jun-08 04:42N 34°14' E 135°07'1 3.5
2018-Jun-08 04:30N 34°14' E 135°06'1 1.2
2018-Jun-08 03:58N 34°14' E 135°05'5 7.4
2018-Jun-08 03:21N 34°10' E 135°06'3 2.4
2018-Jun-08 02:00N 34°07' E 135°07'2 1.8
2018-Jun-08 00:58N 34°08' E 135°06'1 1.2
2018-Jun-08 00:30N 34°09' E 135°06'3 5.2
2018-Jun-07 23:55N 34°12' E 135°07'2 4.6
2018-Jun-07 23:30N 34°13' E 135°09'3 1.5
2018-Jun-07 21:38N 34°14' E 135°06'1 3.7
2018-Jun-07 21:27N 34°14' E 135°06'1 2.7
2018-Jun-07 21:00N 34°13' E 135°07'2 3.2
2018-Jun-07 20:30N 34°13' E 135°09'0 0.0
2018-Jun-07 20:00N 34°13' E 135°09'0 0.0
2018-Jun-07 19:30N 34°13' E 135°09'0 0.0
2018-Jun-07 19:00N 34°13' E 135°09'0 0.0
2018-Jun-07 18:30N 34°13' E 135°09'0 0.0
2018-Jun-07 18:00N 34°13' E 135°09'0 0.0
2018-Jun-07 17:30N 34°13' E 135°09'0 0.0
2018-Jun-07 17:00N 34°13' E 135°09'0 0.0
2018-Jun-07 16:30N 34°13' E 135°09'0 0.0
2018-Jun-07 16:00N 34°13' E 135°09'0 0.0
2018-Jun-07 15:30N 34°13' E 135°09'0 0.0
2018-Jun-07 15:00N 34°13' E 135°09'0 0.0
2018-Jun-07 14:30N 34°13' E 135°09'0 0.0
2018-Jun-07 14:00N 34°13' E 135°09'0 0.0
2018-Jun-07 13:27N 34°13' E 135°09'0 0.0
2018-Jun-07 13:00N 34°13' E 135°09'0 0.0
2018-Jun-07 12:30N 34°13' E 135°09'0 0.0
2018-Jun-07 12:00N 34°13' E 135°09'0 0.0
2018-Jun-07 11:27N 34°13' E 135°09'0 0.0
2018-Jun-07 11:00N 34°13' E 135°09'0 0.0
2018-Jun-07 10:30N 34°13' E 135°09'0 0.0
2018-Jun-07 10:00N 34°13' E 135°09'0 0.0
2018-Jun-07 09:30N 34°13' E 135°09'0 0.0
2018-Jun-07 09:00N 34°13' E 135°09'0 0.0
2018-Jun-07 08:30N 34°13' E 135°09'0 0.0
2018-Jun-07 08:00N 34°13' E 135°09'0 0.0
2018-Jun-07 07:27N 34°13' E 135°09'0 0.0
2018-Jun-07 07:00N 34°13' E 135°09'0 0.0
2018-Jun-07 06:30N 34°13' E 135°09'0 0.0
2018-Jun-07 05:57N 34°13' E 135°09'  
Track history (hours):
 
Tides and Currents Weather Stations Pressure Air Temp Water Temp Dewpoint Dewpoint Depression Visibility Wind Speed Wind Dir Waves Ship Positions

Masuei Maru No32

Last reported at 2018-Jun-17 05:49 UTC. Time now 2018-Jun-24 05:29 UTC.
Position N 34°38' E 135°28'.

Length 32 m.

Type: Tug. MMSI: 431301507.

Date/timePositionNaut miles runAvg speedWind from/ knotsBaromVisibWave heightAir tempDewpointWater temp
2018-Jun-17 05:49N 34°38' E 135°28'4 8.1
2018-Jun-17 05:21N 34°38' E 135°23'410.8
2018-Jun-17 05:00N 34°35' E 135°20'1911.3
2018-Jun-17 03:19N 34°21' E 135°05'310.3
2018-Jun-17 03:00N 34°18' E 135°04'4 8.1
2018-Jun-17 02:30N 34°14' E 135°06'2 3.7
2018-Jun-17 02:00N 34°13' E 135°08'5 4.2
2018-Jun-17 00:53N 34°08' E 135°06'2 4.3
2018-Jun-17 00:27N 34°10' E 135°07'3 7.9
2018-Jun-17 00:00N 34°13' E 135°09'0 0.1
2018-Jun-16 22:54N 34°13' E 135°09'0 0.0
2018-Jun-16 22:30N 34°13' E 135°09'0 0.0
2018-Jun-16 22:00N 34°13' E 135°09'0 0.0
2018-Jun-16 21:30N 34°13' E 135°09'0 0.0
2018-Jun-16 21:00N 34°13' E 135°09'0 0.0
2018-Jun-16 17:30N 34°13' E 135°09'0 0.0
2018-Jun-16 17:00N 34°13' E 135°09'0 0.0
2018-Jun-16 16:30N 34°13' E 135°09'0 0.0
2018-Jun-16 16:00N 34°13' E 135°09'0 0.0
2018-Jun-16 13:08N 34°13' E 135°09'2 7.1
2018-Jun-16 12:53N 34°13' E 135°07'1 0.9
2018-Jun-16 11:51N 34°14' E 135°07'1 1.9
2018-Jun-16 11:23N 34°14' E 135°06'1 3.5
2018-Jun-16 10:58N 34°13' E 135°06'2 3.6
2018-Jun-16 10:27N 34°14' E 135°08'1 1.2
2018-Jun-16 10:00N 34°14' E 135°07'2 3.5
2018-Jun-16 09:30N 34°13' E 135°09'0 0.3
2018-Jun-16 09:00N 34°13' E 135°09'0 0.0
2018-Jun-16 08:30N 34°13' E 135°09'2 1.1
2018-Jun-16 06:57N 34°12' E 135°07'4 2.5
2018-Jun-16 05:14N 34°08' E 135°07'1 0.3
2018-Jun-16 00:59N 34°07' E 135°08'1 1.3
2018-Jun-16 00:29N 34°07' E 135°07'1 2.3
2018-Jun-15 23:59N 34°09' E 135°07'4 8.5
2018-Jun-15 23:31N 34°13' E 135°07'2 0.5
2018-Jun-15 20:10N 34°13' E 135°09'0 0.0
2018-Jun-15 19:58N 34°13' E 135°09'0 0.0
2018-Jun-15 19:22N 34°13' E 135°09'0 0.0
2018-Jun-15 18:58N 34°13' E 135°09'0 0.0
2018-Jun-15 18:28N 34°13' E 135°09'0 0.0
2018-Jun-15 17:49N 34°13' E 135°09'0 0.0
2018-Jun-15 17:28N 34°13' E 135°09'0 0.0
2018-Jun-15 16:58N 34°13' E 135°09'0 0.0
2018-Jun-15 15:49N 34°13' E 135°09'0 0.0
2018-Jun-15 13:55N 34°13' E 135°09'0 0.0
2018-Jun-15 13:28N 34°13' E 135°09'0 0.0
2018-Jun-15 12:52N 34°13' E 135°09'0 0.0
2018-Jun-15 12:28N 34°13' E 135°09'0 0.0
2018-Jun-15 11:58N 34°13' E 135°09'0 0.0
2018-Jun-15 11:19N 34°13' E 135°09'0 0.0
2018-Jun-15 10:49N 34°13' E 135°09'0 0.0
2018-Jun-15 10:28N 34°13' E 135°09'0 0.0
2018-Jun-15 09:58N 34°13' E 135°09'0 0.0
2018-Jun-15 09:28N 34°13' E 135°09'0 0.0
2018-Jun-15 08:46N 34°13' E 135°09'0 0.0
2018-Jun-15 08:28N 34°13' E 135°09'0 0.0
2018-Jun-15 07:58N 34°13' E 135°09'0 0.0
2018-Jun-15 07:19N 34°13' E 135°09'0 0.0
2018-Jun-15 06:25N 34°13' E 135°09'0 0.0
2018-Jun-14 19:01N 34°13' E 135°09'0 0.0
2018-Jun-14 18:58N 34°13' E 135°09'0 0.0
2018-Jun-14 18:28N 34°13' E 135°09'0 0.0
2018-Jun-14 17:58N 34°13' E 135°09'0 0.0
2018-Jun-14 17:25N 34°13' E 135°09'0 0.0
2018-Jun-14 16:49N 34°13' E 135°09'0 0.0
2018-Jun-14 16:25N 34°13' E 135°09'0 0.0
2018-Jun-14 15:58N 34°13' E 135°09'0 0.0
2018-Jun-14 13:16N 34°13' E 135°09'0 0.0
2018-Jun-14 12:55N 34°13' E 135°09'0 0.0
2018-Jun-14 12:28N 34°13' E 135°09'0 0.0
2018-Jun-14 11:58N 34°13' E 135°09'0 0.0
2018-Jun-14 11:28N 34°13' E 135°09'0 0.0
2018-Jun-14 10:58N 34°13' E 135°09'0 0.0
2018-Jun-14 10:19N 34°13' E 135°09'0 0.0
2018-Jun-14 09:55N 34°13' E 135°09'0 0.0
2018-Jun-14 09:25N 34°13' E 135°09'0 0.0
2018-Jun-14 08:55N 34°13' E 135°09'0 0.0
2018-Jun-14 08:25N 34°13' E 135°09'0 0.0
2018-Jun-14 07:58N 34°13' E 135°09'0 0.0
2018-Jun-14 07:28N 34°13' E 135°09'0 0.0
2018-Jun-14 06:58N 34°13' E 135°09'0 0.0
2018-Jun-14 06:28N 34°13' E 135°09'0 0.0
2018-Jun-14 05:53N 34°13' E 135°09'2 5.0
2018-Jun-14 05:29N 34°13' E 135°06'6 9.9
2018-Jun-14 04:52N 34°10' E 134°60'3 9.1
2018-Jun-14 04:30N 34°09' E 134°56'6 1.4
2018-Jun-14 00:30N 34°07' E 134°50'611.8
2018-Jun-14 00:00N 34°09' E 134°57'611.3
2018-Jun-13 23:30N 34°12' E 135°03'510.1
2018-Jun-13 23:00N 34°13' E 135°09'0 0.1
2018-Jun-13 21:31N 34°13' E 135°09'0 0.0
2018-Jun-13 20:49N 34°13' E 135°09'0 0.0
2018-Jun-13 20:25N 34°13' E 135°09'0 0.0
2018-Jun-13 18:49N 34°13' E 135°09'0 0.0
2018-Jun-13 18:25N 34°13' E 135°09'0 0.0
2018-Jun-13 17:55N 34°13' E 135°09'0 0.0
2018-Jun-13 16:49N 34°13' E 135°09'0 0.0
2018-Jun-13 16:25N 34°13' E 135°09'0 0.0
2018-Jun-13 12:07N 34°13' E 135°09'0 0.0
2018-Jun-13 11:49N 34°13' E 135°09'0 0.0
2018-Jun-13 09:43N 34°13' E 135°09'0 0.0
2018-Jun-13 09:25N 34°13' E 135°09'0 0.0
2018-Jun-13 08:58N 34°13' E 135°09'0 0.0
2018-Jun-13 08:25N 34°13' E 135°09'0 0.0
2018-Jun-13 07:55N 34°13' E 135°09'0 0.0
2018-Jun-13 07:25N 34°13' E 135°09'0 0.0
2018-Jun-13 06:49N 34°13' E 135°09'0 0.0
2018-Jun-13 06:01N 34°13' E 135°09'0 0.1
2018-Jun-13 05:55N 34°13' E 135°09'0 0.0
2018-Jun-13 04:24N 34°13' E 135°09'5 7.0
2018-Jun-13 03:39N 34°08' E 135°07'7 5.8
2018-Jun-13 02:30N 34°02' E 135°04'6 1.8
2018-Jun-12 23:08N 34°08' E 135°04'211.6
2018-Jun-12 23:00N 34°10' E 135°05'5 9.7
2018-Jun-12 22:29N 34°14' E 135°07'1 1.5
2018-Jun-12 21:51N 34°14' E 135°08'0 1.2
2018-Jun-12 21:30N 34°14' E 135°07'2 3.9
2018-Jun-12 20:58N 34°14' E 135°05'1 1.5
2018-Jun-12 20:30N 34°14' E 135°05'3 4.8
2018-Jun-12 19:53N 34°13' E 135°09'0 0.0
2018-Jun-12 19:26N 34°13' E 135°09'0 0.0
2018-Jun-12 18:59N 34°13' E 135°09'0 0.0
2018-Jun-12 18:29N 34°13' E 135°09'0 0.0
2018-Jun-12 17:59N 34°13' E 135°09'0 0.0
2018-Jun-12 17:11N 34°13' E 135°09'0 0.0
2018-Jun-12 16:53N 34°13' E 135°09'0 0.0
2018-Jun-12 16:29N 34°13' E 135°09'0 0.0
2018-Jun-12 15:59N 34°13' E 135°09'0 0.0
2018-Jun-12 15:29N 34°13' E 135°09'0 0.0
2018-Jun-12 14:47N 34°13' E 135°09'0 0.0
2018-Jun-12 14:23N 34°13' E 135°09'0 0.0
2018-Jun-12 11:47N 34°13' E 135°09'0 0.0
2018-Jun-12 11:23N 34°13' E 135°09'0 0.0
2018-Jun-12 10:59N 34°13' E 135°09'0 0.0
2018-Jun-12 09:47N 34°13' E 135°09'0 0.0
2018-Jun-12 09:29N 34°13' E 135°09'0 0.0
2018-Jun-12 08:11N 34°13' E 135°09'0 0.0
2018-Jun-12 07:59N 34°13' E 135°09'0 0.0
2018-Jun-12 06:41N 34°13' E 135°09'0 0.0
2018-Jun-12 06:29N 34°13' E 135°09'0 0.0
2018-Jun-12 05:59N 34°13' E 135°09'0 0.0
2018-Jun-12 05:29N 34°13' E 135°09'0 0.0
2018-Jun-12 04:59N 34°13' E 135°09'0 0.0
2018-Jun-12 04:02N 34°13' E 135°09'0 0.0
2018-Jun-12 03:59N 34°13' E 135°09'0 0.0
2018-Jun-12 03:23N 34°13' E 135°09'0 0.0
2018-Jun-12 02:59N 34°13' E 135°09'0 0.0
2018-Jun-12 02:29N 34°13' E 135°09'0 0.0
2018-Jun-12 01:59N 34°13' E 135°09'0 0.0
2018-Jun-12 01:29N 34°13' E 135°09'0 0.0
2018-Jun-12 00:56N 34°13' E 135°09'0 0.0
2018-Jun-12 00:26N 34°13' E 135°09'0 0.0
2018-Jun-11 23:59N 34°13' E 135°09'2 5.0
2018-Jun-11 23:30N 34°14' E 135°06'1 2.7
2018-Jun-11 23:00N 34°14' E 135°08'1 3.0
2018-Jun-11 22:30N 34°13' E 135°09'0 0.4
2018-Jun-11 21:58N 34°13' E 135°09'0 0.0
2018-Jun-11 21:28N 34°13' E 135°09'0 0.0
2018-Jun-11 20:58N 34°13' E 135°09'0 0.0
2018-Jun-11 20:28N 34°13' E 135°09'0 0.0
2018-Jun-11 19:58N 34°13' E 135°09'0 0.0
2018-Jun-11 19:28N 34°13' E 135°09'0 0.0
2018-Jun-11 18:58N 34°13' E 135°09'0 0.0
2018-Jun-11 18:28N 34°13' E 135°09'0 0.0
2018-Jun-11 17:58N 34°13' E 135°09'0 0.0
2018-Jun-11 17:28N 34°13' E 135°09'0 0.0
2018-Jun-11 16:58N 34°13' E 135°09'0 0.0
2018-Jun-11 16:28N 34°13' E 135°09'0 0.0
2018-Jun-11 15:58N 34°13' E 135°09'0 0.0
2018-Jun-11 15:28N 34°13' E 135°09'0 0.0
2018-Jun-11 14:58N 34°13' E 135°09'0 0.0
2018-Jun-11 14:28N 34°13' E 135°09'0 0.0
2018-Jun-11 13:58N 34°13' E 135°09'0 0.0
2018-Jun-11 13:28N 34°13' E 135°09'0 0.0
2018-Jun-11 12:58N 34°13' E 135°09'0 0.0
2018-Jun-11 12:28N 34°13' E 135°09'0 0.0
2018-Jun-11 11:58N 34°13' E 135°09'0 0.0
2018-Jun-11 11:28N 34°13' E 135°09'0 0.0
2018-Jun-11 10:58N 34°13' E 135°09'0 0.0
2018-Jun-11 10:28N 34°13' E 135°09'0 0.0
2018-Jun-11 09:58N 34°13' E 135°09'0 0.0
2018-Jun-11 09:28N 34°13' E 135°09'0 0.0
2018-Jun-11 08:58N 34°13' E 135°09'0 0.0
2018-Jun-11 08:28N 34°13' E 135°09'0 0.0
2018-Jun-11 07:58N 34°13' E 135°09'0 0.0
2018-Jun-11 07:28N 34°13' E 135°09'0 0.0
2018-Jun-11 06:58N 34°13' E 135°09'0 0.0
2018-Jun-11 06:28N 34°13' E 135°09'0 0.0
2018-Jun-11 05:58N 34°13' E 135°09'0 0.0
2018-Jun-11 05:19N 34°13' E 135°09'0 0.0
2018-Jun-11 04:52N 34°13' E 135°09'0 0.0
2018-Jun-11 04:25N 34°13' E 135°09'0 0.0
2018-Jun-11 03:55N 34°13' E 135°09'0 0.0
2018-Jun-11 03:13N 34°13' E 135°09'0 0.0
2018-Jun-11 02:58N 34°13' E 135°09'0 0.0
2018-Jun-11 02:28N 34°13' E 135°09'0 0.0
2018-Jun-11 01:58N 34°13' E 135°09'0 0.0
2018-Jun-11 01:28N 34°13' E 135°09'0 0.0
2018-Jun-11 00:58N 34°13' E 135°09'0 0.0
2018-Jun-11 00:28N 34°13' E 135°09'0 0.0
2018-Jun-10 23:58N 34°13' E 135°09'0 0.0
2018-Jun-10 23:28N 34°13' E 135°09'0 0.0
2018-Jun-10 22:58N 34°13' E 135°09'0 0.0
2018-Jun-10 22:28N 34°13' E 135°09'0 0.0
2018-Jun-10 21:58N 34°13' E 135°09'0 0.0
2018-Jun-10 21:28N 34°13' E 135°09'0 0.0
2018-Jun-10 20:58N 34°13' E 135°09'0 0.0
2018-Jun-10 20:28N 34°13' E 135°09'0 0.0
2018-Jun-10 19:58N 34°13' E 135°09'0 0.0
2018-Jun-10 19:28N 34°13' E 135°09'0 0.0
2018-Jun-10 18:58N 34°13' E 135°09'0 0.0
2018-Jun-10 18:28N 34°13' E 135°09'0 0.0
2018-Jun-10 17:58N 34°13' E 135°09'0 0.0
2018-Jun-10 17:28N 34°13' E 135°09'0 0.0
2018-Jun-10 16:58N 34°13' E 135°09'0 0.0
2018-Jun-10 15:40N 34°13' E 135°09'0 0.0
2018-Jun-10 15:28N 34°13' E 135°09'0 0.0
2018-Jun-10 14:58N 34°13' E 135°09'0 0.0
2018-Jun-10 13:55N 34°13' E 135°09'0 0.0
2018-Jun-10 13:28N 34°13' E 135°09'0 0.0
2018-Jun-10 12:58N 34°13' E 135°09'0 0.0
2018-Jun-10 12:28N 34°13' E 135°09'0 0.0
2018-Jun-10 11:58N 34°13' E 135°09'0 0.0
2018-Jun-10 11:25N 34°13' E 135°09'0 0.0
2018-Jun-10 10:58N 34°13' E 135°09'0 0.0
2018-Jun-10 10:28N 34°13' E 135°09'0 0.0
2018-Jun-10 09:58N 34°13' E 135°09'0 0.8
2018-Jun-10 09:26N 34°13' E 135°09'0 0.9
2018-Jun-10 08:58N 34°13' E 135°09'0 0.0
2018-Jun-10 08:28N 34°13' E 135°09'0 0.0
2018-Jun-10 07:58N 34°13' E 135°09'0 0.0
2018-Jun-10 07:28N 34°13' E 135°09'0 0.0
2018-Jun-10 06:58N 34°13' E 135°09'0 0.0
2018-Jun-10 06:28N 34°13' E 135°09'0 0.0
2018-Jun-10 05:46N 34°13' E 135°09'0 0.0
2018-Jun-10 05:28N 34°13' E 135°09'0 0.0
2018-Jun-10 04:58N 34°13' E 135°09'0 0.0
2018-Jun-10 04:28N 34°13' E 135°09'0 0.0
2018-Jun-10 03:58N 34°13' E 135°09'0 0.0
2018-Jun-10 03:28N 34°13' E 135°09'0 0.0
2018-Jun-10 02:58N 34°13' E 135°09'0 0.0
2018-Jun-10 02:28N 34°13' E 135°09'0 0.0
2018-Jun-10 01:31N 34°13' E 135°09'0 0.1
2018-Jun-10 01:28N 34°13' E 135°09'0 0.0
2018-Jun-10 00:58N 34°13' E 135°09'0 0.0
2018-Jun-10 00:28N 34°13' E 135°09'0 0.0
2018-Jun-09 23:58N 34°13' E 135°09'0 0.0
2018-Jun-09 23:28N 34°13' E 135°09'0 0.0
2018-Jun-09 22:58N 34°13' E 135°09'0 0.0
2018-Jun-09 22:28N 34°13' E 135°09'0 0.0
2018-Jun-09 21:58N 34°13' E 135°09'0 0.0
2018-Jun-09 21:28N 34°13' E 135°09'0 0.0
2018-Jun-09 20:58N 34°13' E 135°09'0 0.0
2018-Jun-09 20:28N 34°13' E 135°09'0 0.0
2018-Jun-09 19:58N 34°13' E 135°09'0 0.0
2018-Jun-09 19:28N 34°13' E 135°09'0 0.0
2018-Jun-09 18:58N 34°13' E 135°09'0 0.0
2018-Jun-09 18:28N 34°13' E 135°09'0 0.0
2018-Jun-09 17:58N 34°13' E 135°09'0 0.0
2018-Jun-09 17:28N 34°13' E 135°09'0 0.0
2018-Jun-09 16:58N 34°13' E 135°09'0 0.0
2018-Jun-09 15:46N 34°13' E 135°09'0 0.0
2018-Jun-09 14:58N 34°13' E 135°09'0 0.0
2018-Jun-09 14:28N 34°13' E 135°09'0 0.0
2018-Jun-09 13:58N 34°13' E 135°09'0 0.0
2018-Jun-09 13:28N 34°13' E 135°09'0 0.0
2018-Jun-09 12:55N 34°13' E 135°09'0 0.0
2018-Jun-09 12:28N 34°13' E 135°09'0 0.0
2018-Jun-09 11:40N 34°13' E 135°09'0 0.0
2018-Jun-09 11:28N 34°13' E 135°09'0 0.0
2018-Jun-09 10:58N 34°13' E 135°09'0 0.0
2018-Jun-09 10:28N 34°13' E 135°09'0 0.0
2018-Jun-09 09:58N 34°13' E 135°09'0 0.0
2018-Jun-09 09:28N 34°13' E 135°09'0 0.0
2018-Jun-09 08:58N 34°13' E 135°09'0 0.0
2018-Jun-09 08:28N 34°13' E 135°09'0 0.0
2018-Jun-09 07:58N 34°13' E 135°09'0 0.0
2018-Jun-09 07:28N 34°13' E 135°09'0 0.0
2018-Jun-09 06:58N 34°13' E 135°09'0 0.0
2018-Jun-09 06:22N 34°13' E 135°09'0 0.0
2018-Jun-09 05:58N 34°13' E 135°09'0 0.0
2018-Jun-09 05:28N 34°13' E 135°09'0 0.0
2018-Jun-09 04:46N 34°13' E 135°09'0 0.0
2018-Jun-09 04:28N 34°13' E 135°09'0 0.0
2018-Jun-09 03:58N 34°13' E 135°09'0 0.1
2018-Jun-09 03:05N 34°13' E 135°09'2 7.0
2018-Jun-09 02:51N 34°13' E 135°07'410.6
2018-Jun-09 02:30N 34°09' E 135°06'2 3.9
2018-Jun-09 01:53N 34°07' E 135°07'1 3.0
2018-Jun-09 01:27N 34°08' E 135°07'511.4
2018-Jun-09 01:00N 34°13' E 135°07'1 2.8
2018-Jun-09 00:29N 34°13' E 135°09'0 0.0
2018-Jun-08 23:59N 34°13' E 135°09'0 0.0
2018-Jun-08 23:29N 34°13' E 135°09'0 0.0
2018-Jun-08 22:59N 34°13' E 135°09'0 0.0
2018-Jun-08 22:29N 34°13' E 135°09'0 0.0
2018-Jun-08 21:59N 34°13' E 135°09'0 0.0
2018-Jun-08 21:29N 34°13' E 135°09'0 0.0
2018-Jun-08 20:53N 34°13' E 135°09'0 0.0
2018-Jun-08 20:29N 34°13' E 135°09'0 0.0
2018-Jun-08 19:59N 34°13' E 135°09'0 0.0
2018-Jun-08 19:29N 34°13' E 135°09'0 0.0
2018-Jun-08 18:59N 34°13' E 135°09'0 0.0
2018-Jun-08 18:17N 34°13' E 135°09'0 0.0
2018-Jun-08 17:59N 34°13' E 135°09'0 0.0
2018-Jun-08 15:11N 34°13' E 135°09'0 0.0
2018-Jun-08 14:59N 34°13' E 135°09'0 0.0
2018-Jun-08 14:26N 34°13' E 135°09'0 0.0
2018-Jun-08 13:59N 34°13' E 135°09'0 0.0
2018-Jun-08 13:26N 34°13' E 135°09'0 0.0
2018-Jun-08 12:59N 34°13' E 135°09'0 0.0
2018-Jun-08 12:29N 34°13' E 135°09'0 0.0
2018-Jun-08 11:56N 34°13' E 135°09'0 0.0
2018-Jun-08 11:29N 34°13' E 135°09'0 0.0
2018-Jun-08 10:59N 34°13' E 135°09'0 0.0
2018-Jun-08 10:29N 34°13' E 135°09'0 0.0
2018-Jun-08 09:59N 34°13' E 135°09'0 0.0
2018-Jun-08 09:29N 34°13' E 135°09'0 0.0
2018-Jun-08 08:59N 34°13' E 135°09'0 0.0
2018-Jun-08 08:29N 34°13' E 135°09'0 0.0
2018-Jun-08 07:59N 34°13' E 135°09'0 0.0
2018-Jun-08 07:29N 34°13' E 135°09'0 0.0
2018-Jun-08 06:59N 34°13' E 135°09'0 0.0
2018-Jun-08 06:29N 34°13' E 135°09'2 2.6
2018-Jun-08 05:48N 34°13' E 135°07'1 0.8
2018-Jun-08 04:42N 34°14' E 135°07'1 3.5
2018-Jun-08 04:30N 34°14' E 135°06'1 1.2
2018-Jun-08 03:58N 34°14' E 135°05'5 7.4
2018-Jun-08 03:21N 34°10' E 135°06'3 2.4
2018-Jun-08 02:00N 34°07' E 135°07'2 1.8
2018-Jun-08 00:58N 34°08' E 135°06'1 1.2
2018-Jun-08 00:30N 34°09' E 135°06'3 5.2
2018-Jun-07 23:55N 34°12' E 135°07'2 4.6
2018-Jun-07 23:30N 34°13' E 135°09'3 1.5
2018-Jun-07 21:38N 34°14' E 135°06'1 3.7
2018-Jun-07 21:27N 34°14' E 135°06'1 2.7
2018-Jun-07 21:00N 34°13' E 135°07'2 3.2
2018-Jun-07 20:30N 34°13' E 135°09'0 0.0
2018-Jun-07 20:00N 34°13' E 135°09'0 0.0
2018-Jun-07 19:30N 34°13' E 135°09'0 0.0
2018-Jun-07 19:00N 34°13' E 135°09'0 0.0
2018-Jun-07 18:30N 34°13' E 135°09'0 0.0
2018-Jun-07 18:00N 34°13' E 135°09'0 0.0
2018-Jun-07 17:30N 34°13' E 135°09'0 0.0
2018-Jun-07 17:00N 34°13' E 135°09'0 0.0
2018-Jun-07 16:30N 34°13' E 135°09'0 0.0
2018-Jun-07 16:00N 34°13' E 135°09'0 0.0
2018-Jun-07 15:30N 34°13' E 135°09'0 0.0
2018-Jun-07 15:00N 34°13' E 135°09'0 0.0
2018-Jun-07 14:30N 34°13' E 135°09'0 0.0
2018-Jun-07 14:00N 34°13' E 135°09'0 0.0
2018-Jun-07 13:27N 34°13' E 135°09'0 0.0
2018-Jun-07 13:00N 34°13' E 135°09'0 0.0
2018-Jun-07 12:30N 34°13' E 135°09'0 0.0
2018-Jun-07 12:00N 34°13' E 135°09'0 0.0
2018-Jun-07 11:27N 34°13' E 135°09'0 0.0
2018-Jun-07 11:00N 34°13' E 135°09'0 0.0
2018-Jun-07 10:30N 34°13' E 135°09'0 0.0
2018-Jun-07 10:00N 34°13' E 135°09'0 0.0
2018-Jun-07 09:30N 34°13' E 135°09'0 0.0
2018-Jun-07 09:00N 34°13' E 135°09'0 0.0
2018-Jun-07 08:30N 34°13' E 135°09'0 0.0
2018-Jun-07 08:00N 34°13' E 135°09'0 0.0
2018-Jun-07 07:27N 34°13' E 135°09'0 0.0
2018-Jun-07 07:00N 34°13' E 135°09'0 0.0
2018-Jun-07 06:30N 34°13' E 135°09'0 0.0
2018-Jun-07 05:57N 34°13' E 135°09'  

Dump ship's entire track history